createdAt,value
2016-03-23T00:00:06.059Z,706.7
2016-03-23T00:00:20.278Z,706.72
2016-03-23T00:00:34.219Z,706.71
2016-03-23T00:00:48.126Z,706.74
2016-03-23T00:01:02.141Z,706.72
2016-03-23T00:01:15.891Z,706.77
2016-03-23T00:01:29.737Z,706.7
2016-03-23T00:01:43.518Z,706.7
2016-03-23T00:01:57.424Z,706.71
2016-03-23T00:02:11.331Z,706.71
2016-03-23T00:02:25.253Z,706.65
2016-03-23T00:02:39.146Z,706.69
2016-03-23T00:02:53.021Z,706.71
2016-03-23T00:03:06.943Z,706.67
2016-03-23T00:03:21.209Z,706.68
2016-03-23T00:03:35.445Z,706.72
2016-03-23T00:03:49.508Z,706.69
2016-03-23T00:04:03.695Z,706.67
2016-03-23T00:04:17.648Z,706.66
2016-03-23T00:04:31.886Z,706.65
2016-03-23T00:04:46.026Z,706.66
2016-03-23T00:05:00.136Z,706.68
2016-03-23T00:05:13.870Z,706.64
2016-03-23T00:05:27.901Z,706.66
2016-03-23T00:05:41.731Z,706.65
2016-03-23T00:05:55.653Z,706.65
2016-03-23T00:06:09.684Z,706.67
2016-03-23T00:06:23.122Z,706.67
2016-03-23T00:06:37.048Z,706.66
2016-03-23T00:06:51.626Z,706.65
2016-03-23T00:07:05.829Z,706.62
2016-03-23T00:07:19.610Z,706.65
2016-03-23T00:07:33.894Z,706.65
2016-03-23T00:07:47.925Z,706.64
2016-03-23T00:08:01.722Z,706.63
2016-03-23T00:08:15.862Z,706.6
2016-03-23T00:08:29.724Z,706.65
2016-03-23T00:08:43.646Z,706.62
2016-03-23T00:08:57.739Z,706.64
2016-03-23T00:09:11.708Z,706.58
2016-03-23T00:09:25.771Z,706.63
2016-03-23T00:09:39.742Z,706.63
2016-03-23T00:09:53.742Z,706.61
2016-03-23T00:10:07.508Z,706.59
2016-03-23T00:10:21.586Z,706.6
2016-03-23T00:10:38.527Z,706.57
2016-03-23T00:10:52.417Z,706.6
2016-03-23T00:11:06.386Z,706.59
2016-03-23T00:11:20.558Z,706.57
2016-03-23T00:11:34.514Z,706.58
2016-03-23T00:11:48.436Z,706.58
2016-03-23T00:12:02.280Z,706.55
2016-03-23T00:12:16.170Z,706.58
2016-03-23T00:12:30.266Z,706.6
2016-03-23T00:12:44.172Z,706.6
2016-03-23T00:12:57.969Z,706.58
2016-03-23T00:13:11.953Z,706.55
2016-03-23T00:13:26.297Z,706.59
2016-03-23T00:13:40.206Z,706.56
2016-03-23T00:13:54.113Z,706.55
2016-03-23T00:14:08.035Z,706.57
2016-03-23T00:14:22.206Z,706.52
2016-03-23T00:14:36.006Z,706.54
2016-03-23T00:15:03.834Z,706.57
2016-03-23T00:15:17.913Z,706.55
2016-03-23T00:15:31.946Z,706.53
2016-03-23T00:15:45.727Z,706.52
2016-03-23T00:15:59.711Z,706.51
2016-03-23T00:16:13.915Z,706.49
2016-03-23T00:16:27.930Z,706.51
2016-03-23T00:16:41.731Z,706.52
2016-03-23T00:16:55.825Z,706.48
2016-03-23T00:17:09.794Z,706.52
2016-03-23T00:17:24.231Z,706.48
2016-03-23T00:17:38.139Z,706.49
2016-03-23T00:17:51.921Z,706.49
2016-03-23T00:18:05.921Z,706.45
2016-03-23T00:18:19.686Z,706.49
2016-03-23T00:18:33.517Z,706.48
2016-03-23T00:18:47.439Z,706.48
2016-03-23T00:19:01.439Z,706.46
2016-03-23T00:19:15.627Z,706.46
2016-03-23T00:19:29.801Z,706.45
2016-03-23T00:19:44.301Z,706.44
2016-03-23T00:19:58.519Z,706.41
2016-03-23T00:20:11.847Z,706.42
2016-03-23T00:20:39.819Z,706.47
2016-03-23T00:20:53.772Z,706.49
2016-03-23T00:21:07.507Z,706.48
2016-03-23T00:21:21.413Z,706.51
2016-03-23T00:21:35.416Z,706.46
2016-03-23T00:21:49.197Z,706.48
2016-03-23T00:22:17.307Z,706.47
2016-03-23T00:22:31.215Z,706.48
2016-03-23T00:22:45.137Z,706.49
2016-03-23T00:22:58.965Z,706.49
2016-03-23T00:23:12.840Z,706.46
2016-03-23T00:23:26.715Z,706.45
2016-03-23T00:23:40.547Z,706.47
2016-03-23T00:23:54.313Z,706.44
2016-03-23T00:24:08.203Z,706.45
2016-03-23T00:24:22.047Z,706.44
2016-03-23T00:24:36.174Z,706.45
2016-03-23T00:24:50.065Z,706.48
2016-03-23T00:25:04.080Z,706.43
2016-03-23T00:25:17.971Z,706.43
2016-03-23T00:25:31.896Z,706.4
2016-03-23T00:25:45.661Z,706.46
2016-03-23T00:25:59.552Z,706.46
2016-03-23T00:26:13.474Z,706.42
2016-03-23T00:26:27.427Z,706.47
2016-03-23T00:26:41.320Z,706.44
2016-03-23T00:26:55.257Z,706.4
2016-03-23T00:27:09.320Z,706.47
2016-03-23T00:27:23.304Z,706.41
2016-03-23T00:27:36.994Z,706.45
2016-03-23T00:27:51.104Z,706.4
2016-03-23T00:28:04.963Z,706.39
2016-03-23T00:28:18.698Z,706.39
2016-03-23T00:28:32.794Z,706.4
2016-03-23T00:28:46.872Z,706.43
2016-03-23T00:29:01.013Z,706.38
2016-03-23T00:29:14.201Z,706.38
2016-03-23T00:29:28.828Z,706.42
2016-03-23T00:29:42.593Z,706.42
2016-03-23T00:29:56.437Z,706.43
2016-03-23T00:30:10.455Z,706.4
2016-03-23T00:30:24.846Z,706.41
2016-03-23T00:30:39.147Z,706.44
2016-03-23T00:30:53.100Z,706.41
2016-03-23T00:31:06.834Z,706.39
2016-03-23T00:31:20.584Z,706.39
2016-03-23T00:31:35.368Z,706.4
2016-03-23T00:31:49.211Z,706.43
2016-03-23T00:32:03.399Z,706.45
2016-03-23T00:32:17.368Z,706.36
2016-03-23T00:32:31.168Z,706.39
2016-03-23T00:32:45.043Z,706.4
2016-03-23T00:32:59.136Z,706.36
2016-03-23T00:33:12.636Z,706.39
2016-03-23T00:33:26.543Z,706.38
2016-03-23T00:33:40.498Z,706.39
2016-03-23T00:33:54.513Z,706.43
2016-03-23T00:34:08.545Z,706.41
2016-03-23T00:34:22.576Z,706.39
2016-03-23T00:34:36.469Z,706.41
2016-03-23T00:34:50.391Z,706.38
2016-03-23T00:35:04.204Z,706.36
2016-03-23T00:35:18.063Z,706.37
2016-03-23T00:35:32.112Z,706.41
2016-03-23T00:35:46.331Z,706.41
2016-03-23T00:36:00.081Z,706.38
2016-03-23T00:36:14.081Z,706.4
2016-03-23T00:36:28.253Z,706.39
2016-03-23T00:36:42.099Z,706.39
2016-03-23T00:36:55.912Z,706.43
2016-03-23T00:37:09.678Z,706.38
2016-03-23T00:37:37.806Z,706.41
2016-03-23T00:37:51.821Z,706.39
2016-03-23T00:38:05.806Z,706.39
2016-03-23T00:38:19.790Z,706.4
2016-03-23T00:38:33.684Z,706.42
2016-03-23T00:38:47.980Z,706.41
2016-03-23T00:39:02.059Z,706.42
2016-03-23T00:39:15.980Z,706.45
2016-03-23T00:39:29.998Z,706.42
2016-03-23T00:39:43.826Z,706.43
2016-03-23T00:39:57.811Z,706.4
2016-03-23T00:40:11.951Z,706.4
2016-03-23T00:40:26.076Z,706.4
2016-03-23T00:40:40.048Z,706.42
2016-03-23T00:40:53.735Z,706.38
2016-03-23T00:41:07.892Z,706.37
2016-03-23T00:41:21.954Z,706.39
2016-03-23T00:41:36.113Z,706.39
2016-03-23T00:41:50.004Z,706.38
2016-03-23T00:42:03.879Z,706.37
2016-03-23T00:42:17.238Z,706.41
2016-03-23T00:42:31.209Z,706.36
2016-03-23T00:42:48.037Z,706.38
2016-03-23T00:43:02.053Z,706.36
2016-03-23T00:43:16.022Z,706.36
2016-03-23T00:43:29.931Z,706.36
2016-03-23T00:43:43.790Z,706.35
2016-03-23T00:43:57.790Z,706.34
2016-03-23T00:44:11.884Z,706.33
2016-03-23T00:44:25.853Z,706.39
2016-03-23T00:44:39.636Z,706.36
2016-03-23T00:44:53.464Z,706.35
2016-03-23T00:45:07.683Z,706.34
2016-03-23T00:45:21.761Z,706.38
2016-03-23T00:45:35.920Z,706.34
2016-03-23T00:45:50.327Z,706.31
2016-03-23T00:46:04.405Z,706.3
2016-03-23T00:46:18.639Z,706.31
2016-03-23T00:46:32.814Z,706.32
2016-03-23T00:46:46.845Z,706.36
2016-03-23T00:47:00.611Z,706.3
2016-03-23T00:47:14.533Z,706.33
2016-03-23T00:47:28.345Z,706.34
2016-03-23T00:47:42.253Z,706.34
2016-03-23T00:47:56.238Z,706.32
2016-03-23T00:48:10.097Z,706.3
2016-03-23T00:48:24.160Z,706.29
2016-03-23T00:48:38.148Z,706.35
2016-03-23T00:48:52.070Z,706.34
2016-03-23T00:49:06.070Z,706.32
2016-03-23T00:49:19.789Z,706.32
2016-03-23T00:49:33.869Z,706.29
2016-03-23T00:49:48.228Z,706.3
2016-03-23T00:50:02.103Z,706.27
2016-03-23T00:50:16.072Z,706.29
2016-03-23T00:50:30.012Z,706.32
2016-03-23T00:50:44.294Z,706.28
2016-03-23T00:50:58.184Z,706.3
2016-03-23T00:51:12.247Z,706.31
2016-03-23T00:51:26.200Z,706.3
2016-03-23T00:51:40.187Z,706.28
2016-03-23T00:51:54.187Z,706.29
2016-03-23T00:52:08.031Z,706.34
2016-03-23T00:52:22.094Z,706.29
2016-03-23T00:52:36.096Z,706.29
2016-03-23T00:52:49.924Z,706.29
2016-03-23T00:53:03.736Z,706.3
2016-03-23T00:53:17.627Z,706.24
2016-03-23T00:53:31.583Z,706.3
2016-03-23T00:53:45.755Z,706.28
2016-03-23T00:53:59.786Z,706.28
2016-03-23T00:54:13.911Z,706.28
2016-03-23T00:54:27.911Z,706.31
2016-03-23T00:54:59.007Z,706.25
2016-03-23T00:55:12.929Z,706.28
2016-03-23T00:55:26.929Z,706.27
2016-03-23T00:55:40.651Z,706.26
2016-03-23T00:55:54.714Z,706.24
2016-03-23T00:56:08.698Z,706.21
2016-03-23T00:56:22.636Z,706.22
2016-03-23T00:56:36.560Z,706.26
2016-03-23T00:57:19.044Z,706.24
2016-03-23T00:57:33.093Z,706.25
2016-03-23T00:57:46.984Z,706.21
2016-03-23T00:58:00.952Z,706.21
2016-03-23T00:58:14.999Z,706.23
2016-03-23T00:58:29.299Z,706.22
2016-03-23T00:58:43.643Z,706.23
2016-03-23T00:58:57.596Z,706.22
2016-03-23T00:59:11.674Z,706.19
2016-03-23T00:59:25.658Z,706.21
2016-03-23T00:59:39.693Z,706.22
2016-03-23T00:59:53.427Z,706.25
2016-03-23T01:00:07.224Z,706.21
2016-03-23T01:00:21.240Z,706.22
2016-03-23T01:00:35.789Z,706.18
2016-03-23T01:00:49.774Z,706.2
2016-03-23T01:01:03.696Z,706.21
2016-03-23T01:01:17.633Z,706.2
2016-03-23T01:01:31.714Z,706.23
2016-03-23T01:01:45.871Z,706.21
2016-03-23T01:02:02.761Z,706.23
2016-03-23T01:02:15.964Z,706.24
2016-03-23T01:02:29.795Z,706.28
2016-03-23T01:02:43.858Z,706.27
2016-03-23T01:02:57.639Z,706.27
2016-03-23T01:03:11.530Z,706.26
2016-03-23T01:03:25.624Z,706.17
2016-03-23T01:03:39.735Z,706.22
2016-03-23T01:03:53.735Z,706.23
2016-03-23T01:04:21.766Z,706.18
2016-03-23T01:04:35.674Z,706.24
2016-03-23T01:04:49.628Z,706.24
2016-03-23T01:05:03.737Z,706.25
2016-03-23T01:05:17.753Z,706.23
2016-03-23T01:05:31.631Z,706.22
2016-03-23T01:05:45.631Z,706.2
2016-03-23T01:05:59.427Z,706.23
2016-03-23T01:06:13.584Z,706.19
2016-03-23T01:06:27.849Z,706.18
2016-03-23T01:06:41.665Z,706.19
2016-03-23T01:06:55.696Z,706.17
2016-03-23T01:07:10.118Z,706.15
2016-03-23T01:07:24.290Z,706.11
2016-03-23T01:07:38.229Z,706.17
2016-03-23T01:07:52.479Z,706.15
2016-03-23T01:08:06.667Z,706.18
2016-03-23T01:08:20.698Z,706.16
2016-03-23T01:08:34.748Z,706.15
2016-03-23T01:08:48.748Z,706.16
2016-03-23T01:09:01.857Z,706.13
2016-03-23T01:09:15.810Z,706.14
2016-03-23T01:09:29.656Z,706.15
2016-03-23T01:09:43.953Z,706.17
2016-03-23T01:09:57.687Z,706.15
2016-03-23T01:10:11.891Z,706.16
2016-03-23T01:10:25.891Z,706.2
2016-03-23T01:10:39.613Z,706.15
2016-03-23T01:10:53.410Z,706.12
2016-03-23T01:11:07.332Z,706.15
2016-03-23T01:11:21.223Z,706.12
2016-03-23T01:11:35.053Z,706.11
2016-03-23T01:11:48.912Z,706.12
2016-03-23T01:12:02.787Z,706.1
2016-03-23T01:12:16.662Z,706.09
2016-03-23T01:12:29.603Z,706.08
2016-03-23T01:12:43.400Z,706.09
2016-03-23T01:12:57.165Z,706.09
2016-03-23T01:13:11.103Z,706.05
2016-03-23T01:13:25.118Z,706.11
2016-03-23T01:13:39.059Z,706.12
2016-03-23T01:13:53.199Z,706.11
2016-03-23T01:14:06.934Z,706.11
2016-03-23T01:14:20.731Z,706.11
2016-03-23T01:14:34.545Z,706.08
2016-03-23T01:14:48.733Z,706.07
2016-03-23T01:15:03.201Z,706.09
2016-03-23T01:15:17.030Z,706.08
2016-03-23T01:15:30.970Z,706.1
2016-03-23T01:15:44.845Z,706.12
2016-03-23T01:15:59.095Z,706.12
2016-03-23T01:16:12.095Z,706.09
2016-03-23T01:16:26.220Z,706.11
